Latest Weather Observations for Frankston

IDV60801

Issued at 8:02 pm EDT Wednesday 10 February 2016 (issued every 30 minutes, with the page automatically refreshed every 10 minutes)

About weather observations | Map of weather stations | Latest weather observations for VIC | Other Formats
Station Details ID: 086371 Name: FRANKSTON AWS Lat: -38.15 Lon: 145.12 Height: 6.0 m
Data from the previous 72 hours. | See also: Recent months at Frankston
Date/Time
EDT
Temp
°C
App
Temp
°C
Dew
Point
Rel
Hum
%
Delta-T
°C
Wind Press
QNH
hPa
Press
MSL
hPa
Rain
since 9 am
mm
Dir
 
Spd
km/h
Gust
km/h
Spd
kts
Gust
kts
10/08:00pm 19.9 18.7 11.7 59 4.5 S 9 15 5 8 - - -
10/07:30pm 20.7 19.0 11.3 55 5.2 S 11 22 6 12 - - -
10/07:00pm 21.4 19.7 11.1 52 5.7 SSE 11 19 6 10 - - -
10/06:30pm 22.8 22.2 12.4 52 5.9 S 7 13 4 7 - - -
10/06:00pm 22.6 22.1 15.0 62 4.5 SW 11 20 6 11 - - -
10/05:30pm 20.4 17.7 14.7 70 3.3 WSW 22 26 12 14 - - -
10/05:00pm 20.4 17.5 14.1 67 3.6 WSW 22 26 12 14 - - -
10/04:30pm 20.7 17.9 14.4 67 3.7 WSW 22 28 12 15 - - -
10/04:00pm 20.1 15.8 13.3 65 3.9 WSW 28 32 15 17 - - -
10/03:30pm 20.0 16.0 14.1 69 3.4 WSW 28 32 15 17 - - -
10/03:00pm 19.6 15.6 14.0 70 3.2 WSW 28 30 15 16 - - -
10/02:30pm 19.6 15.9 13.8 69 3.3 WSW 26 30 14 16 - - -
10/02:00pm 19.7 16.1 14.1 70 3.2 WSW 26 28 14 15 - - -
10/01:30pm 19.3 16.0 13.9 71 3.1 WSW 24 30 13 16 - - -
10/01:00pm 19.3 16.6 13.5 69 3.3 W 20 24 11 13 - - -
10/12:30pm 19.2 16.8 13.8 71 3.1 WSW 19 22 10 12 - - -
10/12:00pm 18.9 17.5 13.5 71 3.1 W 13 17 7 9 - - -
10/11:30am 18.7 17.2 13.1 70 3.2 W 13 17 7 9 - - -
10/11:00am 18.5 17.6 12.7 69 3.2 W 9 13 5 7 - - -
10/10:30am 18.5 18.1 12.9 70 3.1 WNW 7 11 4 6 - - -
10/10:00am 18.5 18.7 12.9 70 3.1 WNW 4 6 2 3 - - -
10/09:30am 18.4 18.6 13.1 71 3.0 SW 4 7 2 4 - - -
10/09:00am 18.2 18.0 13.7 75 2.6 SW 7 11 4 6 - - -
10/08:30am 17.7 17.6 14.0 79 2.1 SW 7 13 4 7 - - -
10/08:00am 17.4 17.6 14.3 82 1.8 SSW 6 9 3 5 - - -
10/07:30am 17.2 18.3 14.5 84 1.6 SSE 2 6 1 3 - - -
10/07:00am 16.7 16.7 14.3 86 1.4 SSW 7 9 4 5 - - -
10/06:30am 16.3 16.5 14.3 88 1.1 S 6 9 3 5 - - -
10/06:00am 15.5 15.9 13.7 89 1.0 S 4 4 2 2 - - -
10/05:30am 15.8 16.8 14.2 90 0.9 SE 2 6 1 3 - - -
10/05:00am 15.2 16.2 13.2 88 1.1 CALM 0 0 0 0 - - -
10/04:30am 16.4 17.9 14.6 89 1.0 CALM 0 0 0 0 - - -
10/04:00am 16.3 17.0 14.5 89 1.0 SSW 4 4 2 2 - - -
10/03:30am 16.3 17.7 14.5 89 1.0 CALM 0 0 0 0 - - -
10/03:00am 16.4 17.9 14.6 89 1.0 CALM 0 0 0 0 - - -
10/02:30am 16.1 16.7 14.3 89 1.0 SSW 4 6 2 3 - - -
10/02:00am 16.5 17.2 14.5 88 1.1 SW 4 6 2 3 - - -
10/01:30am 16.7 17.5 14.9 89 1.0 WSW 4 6 2 3 - - -
10/01:00am 16.6 17.3 14.6 88 1.1 SW 4 6 2 3 - - -
10/12:30am 17.0 17.2 14.8 87 1.3 SW 7 9 4 5 - - -
10/12:00am 17.5 18.0 15.1 86 1.4 SW 6 9 3 5 - - -
 
Date/Time
EDT
Temp
°C
App
Temp
°C
Dew
Point
Rel
Hum
%
Delta-T
°C
Wind Press
QNH
hPa
Press
MSL
hPa
Rain
since 9 am
mm
Dir
 
Spd
km/h
Gust
km/h
Spd
kts
Gust
kts
09/11:30pm 17.4 17.9 14.9 85 1.4 SW 6 7 3 4 - - -
09/11:00pm 17.4 18.5 14.5 83 1.7 S 2 6 1 3 - - -
09/10:30pm 17.5 18.9 14.4 82 1.8 CALM 0 6 0 3 - - -
09/10:00pm 17.9 18.6 14.6 81 1.9 SSW 4 9 2 5 - - -
09/09:30pm 18.3 18.0 14.4 78 2.2 SSE 9 15 5 8 - - -
09/09:00pm 18.6 18.3 14.3 76 2.5 SSE 9 17 5 9 - - -
09/08:30pm 19.0 18.3 14.3 74 2.7 SSE 11 22 6 12 - - -
09/08:00pm 19.7 18.5 13.9 69 3.3 SSE 13 22 7 12 - - -
09/07:30pm 20.4 19.2 14.1 67 3.6 SSE 13 24 7 13 - - -
09/07:00pm 21.5 20.3 13.9 62 4.4 S 13 26 7 14 - - -
09/06:30pm 22.3 21.4 13.6 58 5.0 S 11 22 6 12 - - -
09/06:00pm 23.3 22.7 13.5 54 5.7 S 9 19 5 10 - - -
09/05:30pm 23.6 22.6 13.5 53 5.9 S 11 19 6 10 - - -
09/05:00pm 23.5 22.4 13.1 52 6.0 SSE 11 19 6 10 - - -
09/04:30pm 24.2 23.6 13.4 51 6.3 SSE 9 17 5 9 - - -
09/04:00pm 22.3 19.9 15.4 65 4.1 WSW 22 35 12 19 - - -
09/03:30pm 23.0 20.2 15.3 62 4.6 WSW 24 37 13 20 - - -
09/03:00pm 22.0 19.7 15.6 67 3.8 WSW 22 28 12 15 - - -
09/02:30pm 20.3 17.4 15.1 72 3.1 W 24 26 13 14 - - -
09/02:00pm 20.0 17.4 14.8 72 3.0 W 22 24 12 13 - - -
09/01:30pm 19.8 17.4 14.4 71 3.1 W 20 24 11 13 - - -
09/01:00pm 19.4 17.1 14.0 71 3.1 W 19 22 10 12 - - -
09/12:30pm 19.2 17.6 13.8 71 3.1 W 15 19 8 10 - - -
09/12:00pm 18.9 17.2 13.5 71 3.1 W 15 17 8 9 - - -
09/11:30am 18.9 17.5 13.5 71 3.1 W 13 15 7 8 - - -
09/11:00am 18.8 18.0 13.0 69 3.3 WNW 9 13 5 7 - - -
09/10:30am 20.4 20.1 12.6 61 4.4 SSE 6 9 3 5 - - -
09/10:00am 18.8 18.4 12.3 66 3.6 SE 6 9 3 5 - - -
09/09:30am 18.2 18.1 12.2 68 3.3 S 4 9 2 5 - - -
09/09:00am 18.4 17.8 12.4 68 3.3 S 7 9 4 5 - - -
09/08:30am 17.9 17.4 12.6 71 3.0 SSW 7 15 4 8 - - -
09/08:00am 17.6 16.6 12.3 71 2.9 SW 9 13 5 7 - - -
09/07:30am 17.7 17.4 12.6 72 2.8 SSW 6 9 3 5 - - -
09/07:00am 17.6 17.2 12.5 72 2.8 S 6 9 3 5 - - -
09/06:30am 17.6 17.2 12.5 72 2.8 S 6 9 3 5 - - -
09/06:00am 17.6 17.7 12.7 73 2.7 S 4 9 2 5 - - -
09/05:30am 17.4 17.7 12.3 72 2.8 S 2 6 1 3 - - -
09/05:00am 17.4 17.4 12.3 72 2.8 SSE 4 9 2 5 - - -
09/04:30am 17.3 17.2 12.2 72 2.8 S 4 7 2 4 - - -
09/04:00am 17.4 17.0 12.3 72 2.8 S 6 9 3 5 - - -
09/03:30am 17.4 16.8 12.3 72 2.8 SSW 7 15 4 8 - - -
09/03:00am 17.5 16.9 12.2 71 2.9 S 7 13 4 7 - - -
09/02:30am 17.6 17.0 12.3 71 2.9 SSW 7 11 4 6 - - -
09/02:00am 17.6 17.0 12.3 71 2.9 SSW 7 17 4 9 - - -
09/01:30am 17.9 17.6 12.8 72 2.8 SSW 6 7 3 4 - - -
09/01:00am 17.9 17.4 12.6 71 3.0 S 7 11 4 6 - - -
09/12:30am 18.1 17.8 13.2 73 2.8 SSW 7 11 4 6 - - -
09/12:00am 18.4 17.8 13.5 73 2.8 SSW 9 17 5 9 - - -
 
Date/Time
EDT
Temp
°C
App
Temp
°C
Dew
Point
Rel
Hum
%
Delta-T
°C
Wind Press
QNH
hPa
Press
MSL
hPa
Rain
since 9 am
mm
Dir
 
Spd
km/h
Gust
km/h
Spd
kts
Gust
kts
08/11:30pm 18.5 18.9 13.8 74 2.7 S 4 7 2 4 - - -
08/11:00pm 18.4 18.9 13.9 75 2.6 S 4 7 2 4 - - -
08/10:30pm 18.3 18.3 13.6 74 2.7 SSW 6 9 3 5 - - -
08/10:00pm 18.5 18.3 13.6 73 2.8 SSW 7 11 4 6 - - -
08/09:30pm 18.6 18.4 13.5 72 2.9 SSW 7 13 4 7 - - -
08/09:00pm 18.8 18.5 13.4 71 3.1 S 7 17 4 9 - - -
08/08:30pm 18.9 18.5 13.1 69 3.3 S 7 13 4 7 - - -
08/08:00pm 19.8 19.3 12.8 64 3.9 S 7 17 4 9 - - -
08/07:30pm 20.4 19.3 13.1 63 4.2 S 11 19 6 10 - - -
08/07:00pm 20.7 19.5 12.7 60 4.5 SSE 11 20 6 11 - - -
08/06:30pm 21.8 20.3 11.8 53 5.6 SSE 11 24 6 13 - - -
08/06:00pm 21.8 20.0 12.1 54 5.5 SSE 13 22 7 12 - - -
08/05:30pm 22.4 22.0 12.9 55 5.4 SW 7 19 4 10 - - -
08/05:00pm 21.2 18.3 13.9 63 4.2 WSW 22 35 12 19 - - -
08/04:30pm 22.0 20.8 12.8 56 5.2 SSW 11 22 6 12 - - -
08/04:00pm 22.2 20.8 13.3 57 5.1 SSW 13 24 7 13 - - -
08/03:30pm 19.7 14.9 14.5 72 3.0 WSW 33 39 18 21 - - -
08/03:00pm 19.8 14.9 14.4 71 3.1 WSW 33 41 18 22 - - -
08/02:30pm 19.7 14.8 14.3 71 3.1 WSW 33 41 18 22 - - -
08/02:00pm 19.7 15.2 13.9 69 3.3 WSW 30 35 16 19 - - -
08/01:30pm 19.8 15.9 14.4 71 3.1 WSW 28 32 15 17 - - -
08/01:00pm 19.7 15.8 13.2 66 3.7 WSW 26 32 14 17 - - -
08/12:30pm 19.9 17.0 14.0 69 3.4 WSW 22 26 12 14 - - -
08/12:00pm 19.7 17.0 13.4 67 3.6 WSW 20 24 11 13 - - -
08/11:30am 19.7 17.1 13.2 66 3.7 WSW 19 20 10 11 - - -
08/11:00am 19.6 17.4 13.3 67 3.6 W 17 22 9 12 - - -
08/10:30am 19.4 17.2 13.3 68 3.5 WSW 17 20 9 11 - - -
08/10:00am 19.4 17.6 13.3 68 3.5 WSW 15 19 8 10 - - -
08/09:30am 19.3 18.3 13.3 68 3.4 SW 11 15 6 8 - - -
08/09:00am 19.5 18.7 13.9 70 3.2 SW 11 19 6 10 - - -
08/08:30am 19.0 19.0 14.1 73 2.8 SSW 7 17 4 9 - - -
08/08:00am 18.5 18.7 14.2 76 2.5 SSW 6 9 3 5 - - -
08/07:30am 18.3 19.0 14.4 78 2.2 S 4 6 2 3 - - -
08/07:00am 18.1 18.4 14.4 79 2.1 S 6 9 3 5 - - -
08/06:30am 18.1 18.4 15.0 82 1.8 S 7 11 4 6 - - -
08/06:00am 17.7 19.0 15.1 85 1.5 SSE 2 4 1 2 - - -
08/05:30am 17.4 17.9 15.0 86 1.4 SSE 6 7 3 4 - - -
08/05:00am 17.6 18.2 15.4 87 1.3 S 6 7 3 4 - - -
08/04:30am 17.2 18.1 15.0 87 1.3 SE 4 7 2 4 - - -
08/04:00am 17.1 18.3 14.9 87 1.3 SE 2 6 1 3 - - -
08/03:30am 17.6 18.9 15.2 86 1.4 E 2 2 1 1 - - -
08/03:00am 17.8 18.8 15.4 86 1.4 ESE 4 4 2 2 - - -
08/02:30am 17.8 19.2 15.4 86 1.4 SE 2 4 1 2 - - -
08/02:00am 17.9 19.0 15.5 86 1.4 SSE 4 4 2 2 - - -
08/01:30am 18.3 20.3 15.9 86 1.4 CALM 0 2 0 1 - - -
08/01:00am 18.5 20.1 15.9 85 1.5 SSE 2 6 1 3 - - -
08/12:30am 18.6 19.5 16.0 85 1.5 SSW 6 11 3 6 - - -
08/12:00am 18.9 19.3 16.3 85 1.6 SW 9 11 5 6 - - -
 
Date/Time
EDT
Temp
°C
App
Temp
°C
Dew
Point
Rel
Hum
%
Delta-T
°C
Wind Press
QNH
hPa
Press
MSL
hPa
Rain
since 9 am
mm
Dir
 
Spd
km/h
Gust
km/h
Spd
kts
Gust
kts
07/11:30pm 19.3 19.7 16.3 83 1.8 SW 9 13 5 7 - - -
07/11:00pm 19.4 20.7 16.1 81 2.0 SSW 4 6 2 3 - - -
07/10:30pm 19.5 21.5 16.0 80 2.1 CALM 0 0 0 0 - - -
07/10:00pm 19.8 20.6 15.9 78 2.3 SSE 6 9 3 5 - - -
07/09:30pm 20.5 21.9 15.5 73 3.0 SSE 2 7 1 4 - - -
07/09:00pm 21.4 21.6 14.8 66 3.9 SSE 7 9 4 5 - - -
07/08:30pm 22.9 22.4 12.5 52 5.9 SSW 7 13 4 7 - - -

Other Formats:

Comma delimited format used in spreadsheet applications
http://www.bom.gov.au/fwo/IDV60801/IDV60801.94871.axf

JavaScript Object Notation format (JSON) in row-major order
http://www.bom.gov.au/fwo/IDV60801/IDV60801.94871.json